createdAt,value
2023-02-17T00:00:11.096Z,70.70
2023-02-17T00:01:11.078Z,78.00
2023-02-17T00:02:11.084Z,72.50
2023-02-17T00:03:11.088Z,74.50
2023-02-17T00:04:11.074Z,72.20
2023-02-17T00:05:11.029Z,72.70
2023-02-17T00:06:11.032Z,75.00
2023-02-17T00:07:11.012Z,70.50
2023-02-17T00:08:11.014Z,71.50
2023-02-17T00:09:10.994Z,75.60
2023-02-17T00:10:10.989Z,78.50
2023-02-17T00:11:10.964Z,67.60
2023-02-17T00:12:10.964Z,76.60
2023-02-17T00:13:10.966Z,71.00
2023-02-17T00:14:10.936Z,73.50
2023-02-17T00:15:10.921Z,78.30
2023-02-17T00:16:10.955Z,73.30
2023-02-17T00:17:10.900Z,67.70
2023-02-17T00:18:10.896Z,70.20
2023-02-17T00:19:10.890Z,70.90
2023-02-17T00:20:10.885Z,78.20
2023-02-17T00:21:10.858Z,71.20
2023-02-17T00:22:10.946Z,77.10
2023-02-17T00:23:10.838Z,71.10
2023-02-17T00:24:10.840Z,77.00
2023-02-17T00:25:10.821Z,71.40
2023-02-17T00:26:10.808Z,75.10
2023-02-17T00:27:10.813Z,75.00
2023-02-17T00:28:10.794Z,75.30
2023-02-17T00:29:10.786Z,73.70
2023-02-17T00:30:10.807Z,70.50
2023-02-17T00:31:10.917Z,76.50
2023-02-17T00:32:10.896Z,72.30
2023-02-17T00:33:10.731Z,77.40
2023-02-17T00:34:10.730Z,73.90
2023-02-17T00:35:10.702Z,77.60
2023-02-17T00:36:10.702Z,73.70
2023-02-17T00:37:10.681Z,69.80
2023-02-17T00:38:10.679Z,77.00
2023-02-17T00:39:10.671Z,76.80
2023-02-17T00:40:10.657Z,76.00
2023-02-17T00:41:10.639Z,74.60
2023-02-17T00:42:10.634Z,76.00
2023-02-17T00:43:10.619Z,78.20
2023-02-17T00:44:10.624Z,79.10
2023-02-17T00:45:10.596Z,77.90
2023-02-17T00:46:10.619Z,81.10
2023-02-17T00:47:10.586Z,78.20
2023-02-17T00:48:10.562Z,78.20
2023-02-17T00:49:10.656Z,80.70
2023-02-17T00:50:10.546Z,76.10
2023-02-17T00:51:10.526Z,73.10
2023-02-17T00:52:10.524Z,72.70
2023-02-17T00:53:10.508Z,74.60
2023-02-17T00:54:10.509Z,75.10
2023-02-17T00:55:10.484Z,73.10
2023-02-17T00:56:10.490Z,73.50
2023-02-17T00:57:10.461Z,71.90
2023-02-17T00:58:10.463Z,75.70
2023-02-17T00:59:10.452Z,77.20
2023-02-17T01:00:10.443Z,75.50
2023-02-17T01:01:10.457Z,77.50
2023-02-17T01:02:10.413Z,85.80
2023-02-17T01:03:10.395Z,79.90
2023-02-17T01:04:10.409Z,80.60
2023-02-17T01:05:10.373Z,81.90
2023-02-17T01:06:10.368Z,77.30
2023-02-17T01:07:10.360Z,79.60
2023-02-17T01:08:10.343Z,77.50
2023-02-17T01:09:10.337Z,78.00
2023-02-17T01:10:10.329Z,77.80
2023-02-17T01:11:10.315Z,76.20
2023-02-17T01:12:10.308Z,82.80
2023-02-17T01:13:10.287Z,73.20
2023-02-17T01:14:10.289Z,83.00
2023-02-17T01:15:10.266Z,79.80
2023-02-17T01:16:10.296Z,79.70
2023-02-17T01:17:10.245Z,76.70
2023-02-17T01:18:10.243Z,84.80
2023-02-17T01:19:10.232Z,83.10
2023-02-17T01:20:10.207Z,82.80
2023-02-17T01:21:10.199Z,77.30
2023-02-17T01:22:10.186Z,79.80
2023-02-17T01:23:10.178Z,81.30
2023-02-17T01:24:10.172Z,84.10
2023-02-17T01:25:10.158Z,77.00
2023-02-17T01:26:10.137Z,76.60
2023-02-17T01:27:10.136Z,83.20
2023-02-17T01:28:10.115Z,78.40
2023-02-17T01:29:10.145Z,80.10
2023-02-17T01:30:10.129Z,78.60
2023-02-17T01:31:10.191Z,75.40
2023-02-17T01:32:10.075Z,76.10
2023-02-17T01:33:10.068Z,78.00
2023-02-17T01:34:10.068Z,80.20
2023-02-17T01:35:10.042Z,79.10
2023-02-17T01:36:10.032Z,78.70
2023-02-17T01:37:10.023Z,76.30
2023-02-17T01:38:10.022Z,75.80
2023-02-17T01:39:10.029Z,74.90
2023-02-17T01:40:10.021Z,71.40
2023-02-17T01:41:09.973Z,74.60
2023-02-17T01:42:09.957Z,77.60
2023-02-17T01:43:09.951Z,73.60
2023-02-17T01:44:09.958Z,76.60
2023-02-17T01:45:09.926Z,74.80
2023-02-17T01:46:09.917Z,82.10
2023-02-17T01:47:09.903Z,76.90
2023-02-17T01:48:09.891Z,73.70
2023-02-17T01:49:09.904Z,77.40
2023-02-17T01:50:09.865Z,77.10
2023-02-17T01:51:09.856Z,71.20
2023-02-17T01:52:09.849Z,74.50
2023-02-17T01:53:09.838Z,77.50
2023-02-17T01:54:09.831Z,75.00
2023-02-17T01:55:09.817Z,77.90
2023-02-17T01:56:09.822Z,76.50
2023-02-17T01:57:09.792Z,76.00
2023-02-17T01:58:09.777Z,76.10
2023-02-17T01:59:09.780Z,70.00
2023-02-17T02:00:09.756Z,70.00
2023-02-17T02:01:09.752Z,72.80
2023-02-17T02:02:09.849Z,76.20
2023-02-17T02:03:09.725Z,73.30
2023-02-17T02:04:09.723Z,72.60
2023-02-17T02:05:09.700Z,76.50
2023-02-17T02:06:09.685Z,72.10
2023-02-17T02:07:09.681Z,75.30
2023-02-17T02:08:09.669Z,71.40
2023-02-17T02:09:09.701Z,67.50
2023-02-17T02:10:09.640Z,64.10
2023-02-17T02:11:09.637Z,65.70
2023-02-17T02:12:09.617Z,65.60
2023-02-17T02:13:09.623Z,67.10
2023-02-17T02:14:09.609Z,60.20
2023-02-17T02:15:09.608Z,60.70
2023-02-17T02:16:09.759Z,57.80
2023-02-17T02:17:09.568Z,61.00
2023-02-17T02:18:09.555Z,62.40
2023-02-17T02:19:09.550Z,58.70
2023-02-17T02:20:09.546Z,59.30
2023-02-17T02:21:09.529Z,58.00
2023-02-17T02:22:09.509Z,56.90
2023-02-17T02:23:09.501Z,55.20
2023-02-17T02:24:09.503Z,57.40
2023-02-17T02:25:09.507Z,55.70
2023-02-17T02:26:09.475Z,52.40
2023-02-17T02:27:09.476Z,54.70
2023-02-17T02:28:09.447Z,50.40
2023-02-17T02:29:09.445Z,52.40
2023-02-17T02:30:09.497Z,50.50
2023-02-17T02:31:09.574Z,51.30
2023-02-17T02:32:09.404Z,48.00
2023-02-17T02:33:09.403Z,49.00
2023-02-17T02:34:09.377Z,55.20
2023-02-17T02:35:09.384Z,50.30
2023-02-17T02:36:09.356Z,52.70
2023-02-17T02:37:09.354Z,47.50
2023-02-17T02:38:09.351Z,51.00
2023-02-17T02:39:09.327Z,50.60
2023-02-17T02:40:09.374Z,48.30
2023-02-17T02:41:09.315Z,51.60
2023-02-17T02:42:09.285Z,45.90
2023-02-17T02:43:09.288Z,46.80
2023-02-17T02:44:09.268Z,47.00
2023-02-17T02:45:09.274Z,45.50
2023-02-17T02:46:09.642Z,45.60
2023-02-17T02:47:09.240Z,38.30
2023-02-17T02:48:09.241Z,41.60
2023-02-17T02:49:09.218Z,42.80
2023-02-17T02:50:09.219Z,41.80
2023-02-17T02:51:09.197Z,40.80
2023-02-17T02:52:09.181Z,38.90
2023-02-17T02:53:09.168Z,37.60
2023-02-17T02:54:09.152Z,39.10
2023-02-17T02:55:09.168Z,39.50
2023-02-17T02:56:09.151Z,33.90
2023-02-17T02:57:09.129Z,33.90
2023-02-17T02:58:09.117Z,33.00
2023-02-17T02:59:09.104Z,33.50
2023-02-17T03:00:09.145Z,36.90
2023-02-17T03:01:09.169Z,34.60
2023-02-17T03:02:09.069Z,32.10
2023-02-17T03:03:09.065Z,30.40
2023-02-17T03:04:09.106Z,29.90
2023-02-17T03:05:09.044Z,30.50
2023-02-17T03:06:09.027Z,32.40
2023-02-17T03:07:09.011Z,30.10
2023-02-17T03:08:09.021Z,32.00
2023-02-17T03:09:08.986Z,29.60
2023-02-17T03:10:08.999Z,29.20
2023-02-17T03:11:08.969Z,30.80
2023-02-17T03:12:08.960Z,29.10
2023-02-17T03:13:08.941Z,27.10
2023-02-17T03:14:08.989Z,27.20
2023-02-17T03:15:08.970Z,27.70
2023-02-17T03:16:09.100Z,27.40
2023-02-17T03:17:08.902Z,27.70
2023-02-17T03:18:08.894Z,27.10
2023-02-17T03:19:08.871Z,28.10
2023-02-17T03:20:08.922Z,23.90
2023-02-17T03:21:08.858Z,26.10
2023-02-17T03:22:08.854Z,22.90
2023-02-17T03:23:08.868Z,23.90
2023-02-17T03:24:08.832Z,21.20
2023-02-17T03:25:08.818Z,23.80
2023-02-17T03:26:08.817Z,23.50
2023-02-17T03:27:08.833Z,23.80
2023-02-17T03:28:08.776Z,24.30
2023-02-17T03:29:08.767Z,23.90
2023-02-17T03:30:08.829Z,25.00
2023-02-17T03:31:08.819Z,24.60
2023-02-17T03:32:08.780Z,23.10
2023-02-17T03:33:08.723Z,23.80
2023-02-17T03:34:08.713Z,23.00
2023-02-17T03:35:08.725Z,24.40
2023-02-17T03:36:08.692Z,23.10
2023-02-17T03:37:08.677Z,24.40
2023-02-17T03:38:08.670Z,23.20
2023-02-17T03:39:08.654Z,22.80
2023-02-17T03:40:08.674Z,25.50
2023-02-17T03:41:08.644Z,23.70
2023-02-17T03:42:08.622Z,23.20
2023-02-17T03:43:08.613Z,22.60
2023-02-17T03:44:08.608Z,23.10
2023-02-17T03:45:08.589Z,24.00
2023-02-17T03:46:09.015Z,23.10
2023-02-17T03:47:08.560Z,22.50
2023-02-17T03:48:08.555Z,20.90
2023-02-17T03:49:08.554Z,24.20
2023-02-17T03:50:08.542Z,20.60
2023-02-17T03:51:08.578Z,23.00
2023-02-17T03:52:08.510Z,22.80
2023-02-17T03:53:08.499Z,20.50
2023-02-17T03:54:08.491Z,24.90
2023-02-17T03:55:08.472Z,21.10
2023-02-17T03:56:08.478Z,22.10
2023-02-17T03:57:08.449Z,21.10
2023-02-17T03:58:08.456Z,22.50
2023-02-17T03:59:08.444Z,21.90
2023-02-17T04:00:08.949Z,20.60
2023-02-17T04:01:08.444Z,21.80
2023-02-17T04:02:08.407Z,21.50
2023-02-17T04:03:08.396Z,21.70
2023-02-17T04:04:08.442Z,20.70
2023-02-17T04:05:08.372Z,22.90
2023-02-17T04:06:08.703Z,21.90
2023-02-17T04:07:08.337Z,23.10
2023-02-17T04:08:08.351Z,22.30
2023-02-17T04:09:08.314Z,22.90
2023-02-17T04:10:09.536Z,22.10
2023-02-17T04:11:08.308Z,22.50
2023-02-17T04:12:08.286Z,23.10
2023-02-17T04:13:08.267Z,21.70
2023-02-17T04:14:08.271Z,23.50
2023-02-17T04:15:08.247Z,21.60
2023-02-17T04:16:08.586Z,22.10
2023-02-17T04:17:08.221Z,22.30
2023-02-17T04:18:08.219Z,20.10
2023-02-17T04:19:08.201Z,22.30
2023-02-17T04:20:08.193Z,22.50
2023-02-17T04:21:08.194Z,24.60
2023-02-17T04:22:08.178Z,23.10
2023-02-17T04:23:08.157Z,23.50
2023-02-17T04:24:08.155Z,22.80
2023-02-17T04:25:08.138Z,21.60
2023-02-17T04:26:08.515Z,23.30
2023-02-17T04:27:08.118Z,22.50
2023-02-17T04:28:08.101Z,22.80
2023-02-17T04:29:08.113Z,23.80
2023-02-17T04:30:08.137Z,23.60
2023-02-17T04:31:08.189Z,24.40
2023-02-17T04:32:08.137Z,20.50
2023-02-17T04:33:08.044Z,21.50
2023-02-17T04:34:08.035Z,23.00
2023-02-17T04:35:08.022Z,21.20
2023-02-17T04:36:08.291Z,19.60
2023-02-17T04:37:07.999Z,21.10
2023-02-17T04:38:07.993Z,23.70
2023-02-17T04:39:07.984Z,21.50
2023-02-17T04:40:08.020Z,23.60
2023-02-17T04:41:07.966Z,21.00
2023-02-17T04:42:07.946Z,22.20
2023-02-17T04:43:07.930Z,20.50
2023-02-17T04:44:07.929Z,19.80
2023-02-17T04:45:07.906Z,20.00
2023-02-17T04:46:08.480Z,19.40
2023-02-17T04:47:07.889Z,21.50
2023-02-17T04:48:07.894Z,19.10
2023-02-17T04:49:07.865Z,21.60
2023-02-17T04:50:07.868Z,20.80
2023-02-17T04:51:07.876Z,20.10
2023-02-17T04:52:07.847Z,18.00
2023-02-17T04:53:07.838Z,18.80
2023-02-17T04:54:07.820Z,18.80
2023-02-17T04:55:07.807Z,18.20
2023-02-17T04:56:08.082Z,17.60
2023-02-17T04:57:07.775Z,17.50
2023-02-17T04:58:07.769Z,18.60
2023-02-17T04:59:07.751Z,17.50
2023-02-17T05:00:07.752Z,19.70
2023-02-17T05:01:07.813Z,15.50
2023-02-17T05:02:07.726Z,17.50
2023-02-17T05:03:07.712Z,15.70
2023-02-17T05:04:07.715Z,15.10
2023-02-17T05:05:07.786Z,14.60
2023-02-17T05:06:07.804Z,13.70
2023-02-17T05:07:07.666Z,14.50
2023-02-17T05:08:07.672Z,15.30
2023-02-17T05:09:07.651Z,15.60
2023-02-17T05:10:07.636Z,14.70
2023-02-17T05:11:07.639Z,15.10
2023-02-17T05:12:07.618Z,14.70
2023-02-17T05:13:07.611Z,14.30
2023-02-17T05:14:07.596Z,15.30
2023-02-17T05:15:07.581Z,14.10
2023-02-17T05:16:07.990Z,14.10
2023-02-17T05:17:07.559Z,15.70
2023-02-17T05:18:07.549Z,14.60
2023-02-17T05:19:07.531Z,16.20
2023-02-17T05:20:07.546Z,15.10
2023-02-17T05:21:07.527Z,14.30
2023-02-17T05:22:07.503Z,13.90
2023-02-17T05:23:07.495Z,12.80
2023-02-17T05:24:07.496Z,14.20
2023-02-17T05:25:07.485Z,12.60
2023-02-17T05:26:07.945Z,12.70
2023-02-17T05:27:07.462Z,13.60
2023-02-17T05:28:07.438Z,14.00
2023-02-17T05:29:07.449Z,12.90
2023-02-17T05:30:07.447Z,12.60
2023-02-17T05:31:07.489Z,12.80
2023-02-17T05:32:07.409Z,14.70
2023-02-17T05:33:07.376Z,12.40
2023-02-17T05:34:07.368Z,12.10
2023-02-17T05:35:07.362Z,12.80
2023-02-17T05:36:07.689Z,11.50
2023-02-17T05:37:07.373Z,11.80
2023-02-17T05:38:07.412Z,12.10
2023-02-17T05:39:07.315Z,11.10
2023-02-17T05:40:07.317Z,10.20
2023-02-17T05:41:07.303Z,11.30
2023-02-17T05:42:07.303Z,8.20
2023-02-17T05:43:07.278Z,10.80
2023-02-17T05:44:07.260Z,9.70
2023-02-17T05:45:07.248Z,11.10
2023-02-17T05:46:07.599Z,9.50
2023-02-17T05:47:07.244Z,10.00
2023-02-17T05:48:07.213Z,9.60
2023-02-17T05:49:07.205Z,9.50
2023-02-17T05:50:07.203Z,10.70
2023-02-17T05:51:07.187Z,11.20
2023-02-17T05:52:07.181Z,11.00
2023-02-17T05:53:07.170Z,10.00
2023-02-17T05:54:07.150Z,9.80
2023-02-17T05:55:07.137Z,10.40
2023-02-17T05:56:07.498Z,10.80
2023-02-17T05:57:07.127Z,11.30
2023-02-17T05:58:07.113Z,10.50
2023-02-17T05:59:07.089Z,10.80
2023-02-17T06:00:07.090Z,10.70
2023-02-17T06:01:07.071Z,11.60
2023-02-17T06:02:07.084Z,12.50
2023-02-17T06:03:07.120Z,13.90
2023-02-17T06:04:07.046Z,12.20
2023-02-17T06:05:07.060Z,12.40
2023-02-17T06:06:07.315Z,11.90
2023-02-17T06:07:07.016Z,11.20
2023-02-17T06:08:06.999Z,10.80
2023-02-17T06:09:06.991Z,10.70
2023-02-17T06:10:06.985Z,13.00
2023-02-17T06:11:06.977Z,11.10
2023-02-17T06:12:06.972Z,11.80
2023-02-17T06:13:06.942Z,10.20
2023-02-17T06:14:06.936Z,10.20
2023-02-17T06:15:06.917Z,11.10
2023-02-17T06:16:07.324Z,8.60
2023-02-17T06:17:06.921Z,9.10
2023-02-17T06:18:06.896Z,9.80
2023-02-17T06:19:06.887Z,9.20
2023-02-17T06:20:06.866Z,10.00
2023-02-17T06:21:06.852Z,9.70
2023-02-17T06:22:06.850Z,9.90
2023-02-17T06:23:06.840Z,9.90
2023-02-17T06:24:06.820Z,11.50
2023-02-17T06:25:06.806Z,9.10
2023-02-17T06:26:07.128Z,13.00
2023-02-17T06:27:06.785Z,10.80
2023-02-17T06:28:06.801Z,9.00
2023-02-17T06:29:06.764Z,11.90
2023-02-17T06:30:06.777Z,9.80
2023-02-17T06:31:06.816Z,9.30
2023-02-17T06:32:06.754Z,9.20
2023-02-17T06:33:06.730Z,10.10
2023-02-17T06:34:06.857Z,10.40
2023-02-17T06:35:06.701Z,11.30
2023-02-17T06:36:07.022Z,10.40
2023-02-17T06:37:06.667Z,10.80
2023-02-17T06:38:06.725Z,12.90
2023-02-17T06:39:06.667Z,11.40
2023-02-17T06:40:06.646Z,12.90
2023-02-17T06:41:06.635Z,13.90
2023-02-17T06:42:06.617Z,12.60
2023-02-17T06:43:06.615Z,16.10
2023-02-17T06:44:06.597Z,13.30
2023-02-17T06:45:06.593Z,15.10
2023-02-17T06:46:06.893Z,13.90
2023-02-17T06:47:06.561Z,13.80
2023-02-17T06:48:06.593Z,13.90
2023-02-17T06:49:06.571Z,15.80
2023-02-17T06:50:06.533Z,15.10
2023-02-17T06:51:06.517Z,19.10
2023-02-17T06:52:06.504Z,19.10
2023-02-17T06:53:06.504Z,20.40
2023-02-17T06:54:06.501Z,18.40
2023-02-17T06:55:06.468Z,18.90
2023-02-17T06:56:06.851Z,19.40
2023-02-17T06:57:06.467Z,19.60
2023-02-17T06:58:06.454Z,19.00
2023-02-17T06:59:06.424Z,18.50
2023-02-17T07:00:06.421Z,19.30
2023-02-17T07:01:06.404Z,19.60
2023-02-17T07:02:06.483Z,21.60
2023-02-17T07:03:06.561Z,23.00
2023-02-17T07:04:06.373Z,22.10
2023-02-17T07:05:06.365Z,20.80
2023-02-17T07:06:06.706Z,21.20
2023-02-17T07:07:06.340Z,19.90
2023-02-17T07:08:06.353Z,19.50
2023-02-17T07:09:06.320Z,19.00
2023-02-17T07:10:06.322Z,17.50
2023-02-17T07:11:06.299Z,18.10
2023-02-17T07:12:06.290Z,18.80
2023-02-17T07:13:06.318Z,20.10
2023-02-17T07:14:06.271Z,17.50
2023-02-17T07:15:06.251Z,16.80
2023-02-17T07:16:06.643Z,18.30
2023-02-17T07:17:06.235Z,19.80
2023-02-17T07:18:06.235Z,19.40
2023-02-17T07:19:06.209Z,21.10
2023-02-17T07:20:06.202Z,20.80
2023-02-17T07:21:06.194Z,21.50
2023-02-17T07:22:06.182Z,22.90
2023-02-17T07:23:06.176Z,23.30
2023-02-17T07:24:06.170Z,25.90
2023-02-17T07:25:06.150Z,25.00
2023-02-17T07:26:06.546Z,23.90
2023-02-17T07:27:06.122Z,24.50
2023-02-17T07:28:06.126Z,25.00
2023-02-17T07:29:06.103Z,31.90
2023-02-17T07:30:06.128Z,30.60
2023-02-17T07:31:06.092Z,27.60
2023-02-17T07:32:06.098Z,27.40
2023-02-17T07:33:06.976Z,31.00
2023-02-17T07:34:06.061Z,29.90
2023-02-17T07:35:06.041Z,31.50
2023-02-17T07:36:06.376Z,28.70
2023-02-17T07:37:06.028Z,29.40
2023-02-17T07:38:06.026Z,28.80
2023-02-17T07:39:05.984Z,28.40
2023-02-17T07:40:05.976Z,30.40
2023-02-17T07:41:05.974Z,28.80
2023-02-17T07:42:05.957Z,26.40
2023-02-17T07:43:05.948Z,27.00
2023-02-17T07:44:05.944Z,27.50
2023-02-17T07:45:05.941Z,26.90
2023-02-17T07:46:06.277Z,26.00
2023-02-17T07:47:05.904Z,27.90
2023-02-17T07:48:05.897Z,25.80
2023-02-17T07:49:05.891Z,26.50
2023-02-17T07:50:05.866Z,26.60
2023-02-17T07:51:05.849Z,28.30
2023-02-17T07:52:05.847Z,25.20
2023-02-17T07:53:05.827Z,25.30
2023-02-17T07:54:05.844Z,24.70
2023-02-17T07:55:05.811Z,22.50
2023-02-17T07:56:06.084Z,25.40
2023-02-17T07:57:05.798Z,25.70
2023-02-17T07:58:05.783Z,25.70
2023-02-17T07:59:05.769Z,23.30
2023-02-17T08:00:05.754Z,24.60
2023-02-17T08:01:05.743Z,25.30
2023-02-17T08:02:05.781Z,24.00
2023-02-17T08:03:05.719Z,24.10
2023-02-17T08:04:05.799Z,24.60
2023-02-17T08:05:05.696Z,25.00
2023-02-17T08:06:05.906Z,27.60
2023-02-17T08:07:05.673Z,25.10
2023-02-17T08:08:05.663Z,26.90
2023-02-17T08:09:05.661Z,25.80
2023-02-17T08:10:05.698Z,25.90
2023-02-17T08:11:05.980Z,25.10
2023-02-17T08:12:05.622Z,23.40
2023-02-17T08:13:05.603Z,23.80
2023-02-17T08:14:05.614Z,22.60
2023-02-17T08:15:05.593Z,26.50
2023-02-17T08:16:06.032Z,25.50
2023-02-17T08:17:05.564Z,24.70
2023-02-17T08:18:05.575Z,24.60
2023-02-17T08:19:07.510Z,21.20
2023-02-17T08:20:09.124Z,24.50
2023-02-17T08:21:05.880Z,24.30
2023-02-17T08:22:05.547Z,25.90
2023-02-17T08:23:05.498Z,27.40
2023-02-17T08:24:05.499Z,24.30
2023-02-17T08:25:05.474Z,24.90
2023-02-17T08:26:05.877Z,28.40
2023-02-17T08:27:05.449Z,24.70
2023-02-17T08:28:05.446Z,24.50
2023-02-17T08:29:05.441Z,24.80
2023-02-17T08:30:05.487Z,25.00
2023-02-17T08:31:05.501Z,26.30
2023-02-17T08:32:05.581Z,24.40
2023-02-17T08:33:05.405Z,23.40
2023-02-17T08:34:05.380Z,24.40
2023-02-17T08:35:05.382Z,23.50
2023-02-17T08:36:05.676Z,23.20
2023-02-17T08:37:05.362Z,23.50
2023-02-17T08:38:05.372Z,25.30
2023-02-17T08:39:05.326Z,25.60
2023-02-17T08:40:05.330Z,24.10
2023-02-17T08:41:05.299Z,24.50
2023-02-17T08:42:05.296Z,25.90
2023-02-17T08:43:05.288Z,25.50
2023-02-17T08:44:05.265Z,27.60
2023-02-17T08:45:05.273Z,23.00
2023-02-17T08:46:05.658Z,30.00
2023-02-17T08:47:05.238Z,22.20
2023-02-17T08:48:05.224Z,23.60
2023-02-17T08:49:05.250Z,22.70
2023-02-17T08:50:05.214Z,23.90
2023-02-17T08:51:05.252Z,27.20
2023-02-17T08:52:05.205Z,26.10
2023-02-17T08:53:05.162Z,23.80
2023-02-17T08:54:05.196Z,23.50
2023-02-17T08:55:05.150Z,23.30
2023-02-17T08:56:05.547Z,20.10
2023-02-17T08:57:05.120Z,19.60
2023-02-17T08:58:05.177Z,22.20
2023-02-17T08:59:05.150Z,21.20
2023-02-17T09:00:06.454Z,19.60
2023-02-17T09:01:05.111Z,19.30
2023-02-17T09:02:05.128Z,18.50
2023-02-17T09:03:05.065Z,18.30
2023-02-17T09:04:05.038Z,17.90
2023-02-17T09:05:05.162Z,18.20
2023-02-17T09:06:05.378Z,18.50
2023-02-17T09:07:05.022Z,18.30
2023-02-17T09:08:05.001Z,16.20
2023-02-17T09:09:05.009Z,16.20
2023-02-17T09:10:04.988Z,15.30
2023-02-17T09:11:04.969Z,11.70
2023-02-17T09:12:04.960Z,14.70
2023-02-17T09:13:05.005Z,12.70
2023-02-17T09:14:04.931Z,15.50
2023-02-17T09:15:04.947Z,13.70
2023-02-17T09:16:05.449Z,12.60
2023-02-17T09:17:04.933Z,13.80
2023-02-17T09:18:04.882Z,12.30
2023-02-17T09:19:04.888Z,11.70
2023-02-17T09:20:09.292Z,13.70
2023-02-17T09:21:04.878Z,11.60
2023-02-17T09:22:04.838Z,10.50
2023-02-17T09:23:04.836Z,12.10
2023-02-17T09:24:04.866Z,12.20
2023-02-17T09:25:04.916Z,13.30
2023-02-17T09:26:05.156Z,11.80
2023-02-17T09:27:04.796Z,11.00
2023-02-17T09:28:04.776Z,12.30
2023-02-17T09:29:04.786Z,12.50
2023-02-17T09:30:04.787Z,11.60
2023-02-17T09:31:04.820Z,11.60
2023-02-17T09:32:04.859Z,13.30
2023-02-17T09:33:04.788Z,11.50
2023-02-17T09:34:04.713Z,11.80
2023-02-17T09:35:04.725Z,13.50
2023-02-17T09:36:05.093Z,11.30
2023-02-17T09:37:04.757Z,9.00
2023-02-17T09:38:04.668Z,10.90
2023-02-17T09:39:04.675Z,11.50
2023-02-17T09:40:04.721Z,10.30
2023-02-17T09:41:04.633Z,10.60
2023-02-17T09:42:04.632Z,11.00
2023-02-17T09:43:04.628Z,9.70
2023-02-17T09:44:04.680Z,10.70
2023-02-17T09:45:04.615Z,12.30
2023-02-17T09:46:05.007Z,10.00
2023-02-17T09:47:04.643Z,10.30
2023-02-17T09:48:04.671Z,12.60
2023-02-17T09:49:04.597Z,11.90
2023-02-17T09:50:04.552Z,11.20
2023-02-17T09:51:04.590Z,10.80
2023-02-17T09:52:04.508Z,10.60
2023-02-17T09:53:04.539Z,12.10
2023-02-17T09:54:04.570Z,10.20
2023-02-17T09:55:04.517Z,10.20
2023-02-17T09:56:04.903Z,10.50
2023-02-17T09:57:04.458Z,10.10
2023-02-17T09:58:04.556Z,12.30
2023-02-17T09:59:04.505Z,10.90
2023-02-17T10:00:04.468Z,9.80
2023-02-17T10:01:04.409Z,10.00
2023-02-17T10:02:04.444Z,7.90
2023-02-17T10:03:04.421Z,11.30
2023-02-17T10:04:04.430Z,9.70
2023-02-17T10:05:04.420Z,10.20
2023-02-17T10:06:04.698Z,11.60
2023-02-17T10:07:04.342Z,9.50
2023-02-17T10:08:04.336Z,10.30
2023-02-17T10:09:04.433Z,9.70
2023-02-17T10:10:04.400Z,10.20
2023-02-17T10:11:04.302Z,11.20
2023-02-17T10:12:04.397Z,10.50
2023-02-17T10:13:04.305Z,10.30
2023-02-17T10:14:04.282Z,9.70
2023-02-17T10:15:04.312Z,9.80
2023-02-17T10:16:04.569Z,10.50
2023-02-17T10:17:04.244Z,10.00
2023-02-17T10:18:04.243Z,10.50
2023-02-17T10:19:04.216Z,10.90
2023-02-17T10:20:04.206Z,9.80
2023-02-17T10:21:04.250Z,9.50
2023-02-17T10:22:04.197Z,9.40
2023-02-17T10:23:04.166Z,10.40
2023-02-17T10:24:04.149Z,10.10
2023-02-17T10:25:04.148Z,9.30
2023-02-17T10:26:04.420Z,11.40
2023-02-17T10:27:04.199Z,8.70
2023-02-17T10:28:04.133Z,8.80
2023-02-17T10:29:04.095Z,10.40
2023-02-17T10:30:04.185Z,9.40
2023-02-17T10:31:04.212Z,10.40
2023-02-17T10:32:04.298Z,9.00
2023-02-17T10:33:04.122Z,10.00
2023-02-17T10:34:04.098Z,9.40
2023-02-17T10:35:04.042Z,9.90
2023-02-17T10:36:04.192Z,9.80
2023-02-17T10:37:04.086Z,10.80
2023-02-17T10:38:03.989Z,10.10
2023-02-17T10:39:03.988Z,9.20
2023-02-17T10:40:03.986Z,9.30
2023-02-17T10:41:03.953Z,8.30
2023-02-17T10:42:03.944Z,8.70
2023-02-17T10:43:07.322Z,9.70
2023-02-17T10:44:03.926Z,7.90
2023-02-17T10:45:03.956Z,9.10
2023-02-17T10:46:03.899Z,8.10
2023-02-17T10:47:03.890Z,7.90
2023-02-17T10:48:03.886Z,10.00
2023-02-17T10:49:06.326Z,8.00
2023-02-17T10:50:03.903Z,8.70
2023-02-17T10:51:03.843Z,8.70
2023-02-17T10:52:03.837Z,8.90
2023-02-17T10:53:03.826Z,7.80
2023-02-17T10:54:03.829Z,8.10
2023-02-17T10:55:11.446Z,9.00
2023-02-17T10:56:04.221Z,6.00
2023-02-17T10:57:03.775Z,8.10
2023-02-17T10:58:03.784Z,7.20
2023-02-17T10:59:03.756Z,7.80
2023-02-17T11:00:03.772Z,9.60
2023-02-17T11:01:03.888Z,7.20
2023-02-17T11:02:03.731Z,9.40
2023-02-17T11:03:03.718Z,7.20
2023-02-17T11:04:03.783Z,9.00
2023-02-17T11:05:03.702Z,8.10
2023-02-17T11:06:03.698Z,7.00
2023-02-17T11:07:03.665Z,7.10
2023-02-17T11:08:03.663Z,9.50
2023-02-17T11:09:03.657Z,8.00
2023-02-17T11:10:03.652Z,7.40
2023-02-17T11:11:03.702Z,7.80
2023-02-17T11:12:03.623Z,6.30
2023-02-17T11:13:03.699Z,7.50
2023-02-17T11:14:03.602Z,7.00
2023-02-17T11:15:03.588Z,6.80
2023-02-17T11:16:03.589Z,7.90
2023-02-17T11:17:03.563Z,6.90
2023-02-17T11:18:03.550Z,7.90
2023-02-17T11:19:03.544Z,8.10
2023-02-17T11:20:03.542Z,8.00
2023-02-17T11:21:03.513Z,9.30
2023-02-17T11:22:03.509Z,7.00
2023-02-17T11:23:03.499Z,7.00
2023-02-17T11:24:03.482Z,6.40
2023-02-17T11:25:03.488Z,7.20
2023-02-17T11:26:03.732Z,8.10
2023-02-17T11:27:03.460Z,7.20
2023-02-17T11:28:03.448Z,8.50
2023-02-17T11:29:03.472Z,8.30
2023-02-17T11:30:03.515Z,7.80
2023-02-17T11:31:03.474Z,8.60
2023-02-17T11:32:03.459Z,6.80
2023-02-17T11:33:03.382Z,8.50
2023-02-17T11:34:03.374Z,7.80
2023-02-17T11:35:03.369Z,7.30
2023-02-17T11:36:03.350Z,7.20
2023-02-17T11:37:03.339Z,8.20
2023-02-17T11:38:03.329Z,7.90
2023-02-17T11:39:03.311Z,6.70
2023-02-17T11:40:03.314Z,6.90
2023-02-17T11:41:03.297Z,7.70
2023-02-17T11:42:03.284Z,7.10
2023-02-17T11:43:03.268Z,8.20
2023-02-17T11:44:03.262Z,7.00
2023-02-17T11:45:03.255Z,7.30
2023-02-17T11:46:03.270Z,7.00
2023-02-17T11:47:03.221Z,5.80
2023-02-17T11:48:03.214Z,6.60
2023-02-17T11:49:03.217Z,7.80
2023-02-17T11:50:03.208Z,5.60
2023-02-17T11:51:03.176Z,6.00
2023-02-17T11:52:03.169Z,7.90
2023-02-17T11:53:03.152Z,6.10
2023-02-17T11:54:03.147Z,7.00
2023-02-17T11:55:03.145Z,6.80
2023-02-17T11:56:03.126Z,7.20
2023-02-17T11:57:03.111Z,7.20
2023-02-17T11:58:03.104Z,7.70
2023-02-17T11:59:03.088Z,7.00
2023-02-17T12:00:03.085Z,6.20
2023-02-17T12:01:03.073Z,6.40
2023-02-17T12:02:03.056Z,6.10
2023-02-17T12:03:03.053Z,6.50
2023-02-17T12:04:03.027Z,6.70
2023-02-17T12:05:03.062Z,6.30
2023-02-17T12:06:03.001Z,6.90
2023-02-17T12:07:02.998Z,7.10
2023-02-17T12:08:02.979Z,5.70
2023-02-17T12:09:02.971Z,7.10
2023-02-17T12:10:02.989Z,6.00
2023-02-17T12:11:02.950Z,6.00
2023-02-17T12:12:02.949Z,8.20
2023-02-17T12:13:02.927Z,6.20
2023-02-17T12:14:02.910Z,7.00
2023-02-17T12:15:02.922Z,7.80
2023-02-17T12:16:02.912Z,7.20
2023-02-17T12:17:02.881Z,7.30
2023-02-17T12:18:02.863Z,6.10
2023-02-17T12:19:02.867Z,6.90
2023-02-17T12:20:02.855Z,5.90
2023-02-17T12:21:02.842Z,5.80
2023-02-17T12:22:02.825Z,7.40
2023-02-17T12:23:02.836Z,5.70
2023-02-17T12:24:02.799Z,6.40
2023-02-17T12:25:02.816Z,6.90
2023-02-17T12:26:02.775Z,6.90
2023-02-17T12:27:02.767Z,6.60
2023-02-17T12:28:02.760Z,6.00
2023-02-17T12:29:02.755Z,8.10
2023-02-17T12:30:02.767Z,6.00
2023-02-17T12:31:03.192Z,8.90
2023-02-17T12:32:02.817Z,6.30
2023-02-17T12:33:02.718Z,8.10
2023-02-17T12:34:02.909Z,7.30
2023-02-17T12:35:02.686Z,6.20
2023-02-17T12:36:02.658Z,8.20
2023-02-17T12:37:05.964Z,6.20
2023-02-17T12:38:02.640Z,6.60
2023-02-17T12:39:02.694Z,7.80
2023-02-17T12:40:03.230Z,6.70
2023-02-17T12:41:02.613Z,7.00
2023-02-17T12:42:02.825Z,7.00
2023-02-17T12:43:02.816Z,6.20
2023-02-17T12:44:02.811Z,7.50
2023-02-17T12:45:02.570Z,7.00
2023-02-17T12:46:02.811Z,6.40
2023-02-17T12:47:05.838Z,6.90
2023-02-17T12:48:04.043Z,7.00
2023-02-17T12:49:06.528Z,7.80
2023-02-17T12:50:02.510Z,6.80
2023-02-17T12:51:02.500Z,7.10
2023-02-17T12:52:02.495Z,7.60
2023-02-17T12:53:02.711Z,6.80
2023-02-17T12:54:02.476Z,8.10
2023-02-17T12:55:02.466Z,7.30
2023-02-17T12:56:03.658Z,7.60
2023-02-17T12:57:03.984Z,7.60
2023-02-17T12:58:02.416Z,8.40